sensor_id;sensor_type;location;lat;lon;timestamp;P1;durP1;ratioP1;P2;durP2;ratioP2
59109;SDS011;44895;47.438;18.978;2024-03-23T00:55:17;23.75;;;15.52;;
59109;SDS011;44895;47.438;18.978;2024-03-23T00:58:21;24.70;;;15.80;;
59109;SDS011;44895;47.438;18.978;2024-03-23T01:01:25;24.00;;;14.15;;
59109;SDS011;44895;47.438;18.978;2024-03-23T01:04:29;23.90;;;16.20;;
59109;SDS011;44895;47.438;18.978;2024-03-23T01:07:33;25.02;;;16.15;;
59109;SDS011;44895;47.438;18.978;2024-03-23T01:10:36;21.80;;;15.10;;
59109;SDS011;44895;47.438;18.978;2024-03-23T01:13:40;20.20;;;16.10;;
59109;SDS011;44895;47.438;18.978;2024-03-23T01:16:44;23.27;;;16.00;;
59109;SDS011;44895;47.438;18.978;2024-03-23T01:19:48;18.73;;;14.30;;
59109;SDS011;44895;47.438;18.978;2024-03-23T01:22:51;29.98;;;17.83;;
59109;SDS011;44895;47.438;18.978;2024-03-23T01:25:55;25.33;;;15.68;;
59109;SDS011;44895;47.438;18.978;2024-03-23T01:28:59;24.73;;;16.80;;
59109;SDS011;44895;47.438;18.978;2024-03-23T01:32:03;26.02;;;18.63;;
59109;SDS011;44895;47.438;18.978;2024-03-23T01:35:07;24.92;;;16.48;;
59109;SDS011;44895;47.438;18.978;2024-03-23T01:38:11;26.58;;;15.80;;
59109;SDS011;44895;47.438;18.978;2024-03-23T01:41:16;26.13;;;16.75;;
59109;SDS011;44895;47.438;18.978;2024-03-23T01:44:19;23.15;;;17.23;;
59109;SDS011;44895;47.438;18.978;2024-03-23T01:47:23;24.02;;;16.58;;
59109;SDS011;44895;47.438;18.978;2024-03-23T01:50:27;26.65;;;16.58;;
59109;SDS011;44895;47.438;18.978;2024-03-23T01:53:31;27.10;;;16.73;;
59109;SDS011;44895;47.438;18.978;2024-03-23T01:56:35;25.20;;;16.90;;
59109;SDS011;44895;47.438;18.978;2024-03-23T01:59:39;24.67;;;16.75;;
59109;SDS011;44895;47.438;18.978;2024-03-23T02:02:45;30.90;;;16.70;;
59109;SDS011;44895;47.438;18.978;2024-03-23T02:05:49;31.05;;;18.30;;
59109;SDS011;44895;47.438;18.978;2024-03-23T02:08:54;21.92;;;15.48;;
59109;SDS011;44895;47.438;18.978;2024-03-23T02:11:58;23.63;;;17.30;;
59109;SDS011;44895;47.438;18.978;2024-03-23T02:15:02;23.02;;;17.45;;
59109;SDS011;44895;47.438;18.978;2024-03-23T02:18:07;24.10;;;15.30;;
59109;SDS011;44895;47.438;18.978;2024-03-23T02:21:11;28.38;;;17.50;;
59109;SDS011;44895;47.438;18.978;2024-03-23T02:24:15;26.02;;;17.35;;
59109;SDS011;44895;47.438;18.978;2024-03-23T02:27:19;27.33;;;18.00;;
59109;SDS011;44895;47.438;18.978;2024-03-23T02:30:23;25.38;;;18.75;;
59109;SDS011;44895;47.438;18.978;2024-03-23T02:33:26;30.27;;;19.08;;
59109;SDS011;44895;47.438;18.978;2024-03-23T02:36:30;27.33;;;18.75;;
59109;SDS011;44895;47.438;18.978;2024-03-23T02:39:34;29.55;;;21.23;;
59109;SDS011;44895;47.438;18.978;2024-03-23T02:42:38;43.03;;;21.60;;
59109;SDS011;44895;47.438;18.978;2024-03-23T02:45:42;30.85;;;20.40;;
59109;SDS011;44895;47.438;18.978;2024-03-23T02:48:48;26.98;;;20.33;;
59109;SDS011;44895;47.438;18.978;2024-03-23T02:51:52;33.25;;;21.58;;
59109;SDS011;44895;47.438;18.978;2024-03-23T02:54:56;49.13;;;23.30;;
59109;SDS011;44895;47.438;18.978;2024-03-23T02:58:00;36.78;;;24.13;;
59109;SDS011;44895;47.438;18.978;2024-03-23T03:01:05;33.55;;;22.90;;
59109;SDS011;44895;47.438;18.978;2024-03-23T03:04:08;29.85;;;23.20;;
59109;SDS011;44895;47.438;18.978;2024-03-23T03:07:12;34.78;;;25.35;;
59109;SDS011;44895;47.438;18.978;2024-03-23T03:10:16;31.73;;;24.65;;
59109;SDS011;44895;47.438;18.978;2024-03-23T03:13:20;32.17;;;22.38;;
59109;SDS011;44895;47.438;18.978;2024-03-23T03:16:23;34.72;;;24.75;;
59109;SDS011;44895;47.438;18.978;2024-03-23T03:19:27;40.85;;;26.17;;
59109;SDS011;44895;47.438;18.978;2024-03-23T03:22:31;31.40;;;23.02;;
59109;SDS011;44895;47.438;18.978;2024-03-23T03:25:35;34.38;;;23.48;;
59109;SDS011;44895;47.438;18.978;2024-03-23T03:28:38;33.60;;;22.85;;
59109;SDS011;44895;47.438;18.978;2024-03-23T03:31:42;31.45;;;21.70;;
59109;SDS011;44895;47.438;18.978;2024-03-23T03:34:46;33.67;;;24.42;;
59109;SDS011;44895;47.438;18.978;2024-03-23T03:37:50;29.95;;;22.92;;
59109;SDS011;44895;47.438;18.978;2024-03-23T03:40:54;31.40;;;23.85;;
59109;SDS011;44895;47.438;18.978;2024-03-23T03:43:58;33.40;;;24.75;;
59109;SDS011;44895;47.438;18.978;2024-03-23T03:47:05;28.50;;;22.90;;
59109;SDS011;44895;47.438;18.978;2024-03-23T03:50:10;32.00;;;23.60;;
59109;SDS011;44895;47.438;18.978;2024-03-23T03:53:13;30.48;;;22.17;;
59109;SDS011;44895;47.438;18.978;2024-03-23T03:56:17;33.08;;;22.75;;
59109;SDS011;44895;47.438;18.978;2024-03-23T03:59:21;28.42;;;21.00;;
59109;SDS011;44895;47.438;18.978;2024-03-23T04:02:25;28.75;;;20.70;;
59109;SDS011;44895;47.438;18.978;2024-03-23T04:05:29;29.20;;;19.60;;
59109;SDS011;44895;47.438;18.978;2024-03-23T04:08:32;25.55;;;19.75;;
59109;SDS011;44895;47.438;18.978;2024-03-23T04:11:36;29.20;;;23.23;;
59109;SDS011;44895;47.438;18.978;2024-03-23T04:14:40;29.27;;;19.98;;
59109;SDS011;44895;47.438;18.978;2024-03-23T04:17:44;35.22;;;24.00;;
59109;SDS011;44895;47.438;18.978;2024-03-23T04:20:51;28.88;;;19.42;;
59109;SDS011;44895;47.438;18.978;2024-03-23T04:23:55;35.80;;;24.88;;
59109;SDS011;44895;47.438;18.978;2024-03-23T04:26:58;51.55;;;23.33;;
59109;SDS011;44895;47.438;18.978;2024-03-23T04:30:03;32.55;;;25.05;;
59109;SDS011;44895;47.438;18.978;2024-03-23T04:33:13;35.35;;;24.40;;
59109;SDS011;44895;47.438;18.978;2024-03-23T04:36:17;33.55;;;25.63;;
59109;SDS011;44895;47.438;18.978;2024-03-23T04:39:22;29.20;;;22.77;;
59109;SDS011;44895;47.438;18.978;2024-03-23T04:42:26;36.72;;;24.88;;
59109;SDS011;44895;47.438;18.978;2024-03-23T04:45:31;34.60;;;23.42;;
59109;SDS011;44895;47.438;18.978;2024-03-23T04:48:34;34.35;;;23.17;;
59109;SDS011;44895;47.438;18.978;2024-03-23T04:51:38;33.70;;;24.05;;
59109;SDS011;44895;47.438;18.978;2024-03-23T04:54:43;35.67;;;22.90;;
59109;SDS011;44895;47.438;18.978;2024-03-23T04:57:47;30.70;;;24.13;;
59109;SDS011;44895;47.438;18.978;2024-03-23T05:00:55;26.02;;;20.00;;
59109;SDS011;44895;47.438;18.978;2024-03-23T05:03:59;28.55;;;23.45;;
59109;SDS011;44895;47.438;18.978;2024-03-23T05:07:03;28.23;;;23.40;;
59109;SDS011;44895;47.438;18.978;2024-03-23T05:10:09;30.65;;;23.52;;
59109;SDS011;44895;47.438;18.978;2024-03-23T05:13:17;28.67;;;23.00;;
59109;SDS011;44895;47.438;18.978;2024-03-23T05:16:21;29.52;;;22.50;;
59109;SDS011;44895;47.438;18.978;2024-03-23T05:19:25;30.90;;;21.77;;
59109;SDS011;44895;47.438;18.978;2024-03-23T05:22:29;34.58;;;23.60;;
59109;SDS011;44895;47.438;18.978;2024-03-23T05:25:32;32.15;;;21.15;;
59109;SDS011;44895;47.438;18.978;2024-03-23T05:28:37;30.48;;;21.73;;
59109;SDS011;44895;47.438;18.978;2024-03-23T05:31:41;27.92;;;20.30;;
59109;SDS011;44895;47.438;18.978;2024-03-23T05:34:45;27.73;;;21.25;;
59109;SDS011;44895;47.438;18.978;2024-03-23T05:37:48;34.50;;;24.02;;
59109;SDS011;44895;47.438;18.978;2024-03-23T05:40:53;30.48;;;23.17;;
59109;SDS011;44895;47.438;18.978;2024-03-23T05:44:05;32.38;;;22.90;;
59109;SDS011;44895;47.438;18.978;2024-03-23T05:47:09;30.30;;;23.27;;
59109;SDS011;44895;47.438;18.978;2024-03-23T05:50:13;33.00;;;22.77;;
59109;SDS011;44895;47.438;18.978;2024-03-23T05:53:16;30.63;;;22.17;;
59109;SDS011;44895;47.438;18.978;2024-03-23T05:56:21;35.75;;;23.48;;
59109;SDS011;44895;47.438;18.978;2024-03-23T05:59:24;32.97;;;24.33;;
59109;SDS011;44895;47.438;18.978;2024-03-23T06:02:28;32.67;;;24.92;;
59109;SDS011;44895;47.438;18.978;2024-03-23T06:05:32;29.20;;;24.98;;
59109;SDS011;44895;47.438;18.978;2024-03-23T06:08:36;30.77;;;23.95;;
59109;SDS011;44895;47.438;18.978;2024-03-23T06:11:39;28.80;;;22.52;;
59109;SDS011;44895;47.438;18.978;2024-03-23T06:14:43;30.98;;;24.20;;
59109;SDS011;44895;47.438;18.978;2024-03-23T06:17:47;28.88;;;22.30;;
59109;SDS011;44895;47.438;18.978;2024-03-23T06:20:51;29.15;;;21.20;;
59109;SDS011;44895;47.438;18.978;2024-03-23T06:23:55;28.80;;;20.52;;
59109;SDS011;44895;47.438;18.978;2024-03-23T06:26:59;29.60;;;22.60;;
59109;SDS011;44895;47.438;18.978;2024-03-23T06:30:03;31.45;;;22.27;;
59109;SDS011;44895;47.438;18.978;2024-03-23T06:33:07;26.15;;;19.30;;
59109;SDS011;44895;47.438;18.978;2024-03-23T06:36:11;25.70;;;20.05;;
59109;SDS011;44895;47.438;18.978;2024-03-23T06:39:15;36.35;;;20.88;;
59109;SDS011;44895;47.438;18.978;2024-03-23T06:42:19;23.00;;;19.40;;
59109;SDS011;44895;47.438;18.978;2024-03-23T06:45:23;21.48;;;18.05;;
59109;SDS011;44895;47.438;18.978;2024-03-23T06:48:27;28.98;;;20.38;;
59109;SDS011;44895;47.438;18.978;2024-03-23T06:51:30;30.95;;;19.83;;
59109;SDS011;44895;47.438;18.978;2024-03-23T06:54:34;25.45;;;18.27;;
59109;SDS011;44895;47.438;18.978;2024-03-23T06:57:39;25.00;;;17.45;;
59109;SDS011;44895;47.438;18.978;2024-03-23T07:00:42;26.95;;;19.38;;
59109;SDS011;44895;47.438;18.978;2024-03-23T07:03:46;26.25;;;18.17;;
59109;SDS011;44895;47.438;18.978;2024-03-23T07:06:49;26.55;;;18.70;;
59109;SDS011;44895;47.438;18.978;2024-03-23T07:09:53;24.92;;;18.00;;
59109;SDS011;44895;47.438;18.978;2024-03-23T07:12:57;25.55;;;19.15;;
59109;SDS011;44895;47.438;18.978;2024-03-23T07:16:01;22.52;;;14.88;;
59109;SDS011;44895;47.438;18.978;2024-03-23T07:19:05;20.20;;;15.40;;
59109;SDS011;44895;47.438;18.978;2024-03-23T07:22:09;23.17;;;15.50;;
59109;SDS011;44895;47.438;18.978;2024-03-23T07:25:13;20.20;;;15.77;;
59109;SDS011;44895;47.438;18.978;2024-03-23T07:28:17;19.50;;;14.00;;
59109;SDS011;44895;47.438;18.978;2024-03-23T07:31:21;21.52;;;13.88;;
59109;SDS011;44895;47.438;18.978;2024-03-23T07:34:26;20.27;;;14.18;;
59109;SDS011;44895;47.438;18.978;2024-03-23T07:37:29;21.67;;;15.88;;
59109;SDS011;44895;47.438;18.978;2024-03-23T07:40:33;19.65;;;15.48;;
59109;SDS011;44895;47.438;18.978;2024-03-23T07:43:37;22.88;;;15.60;;
59109;SDS011;44895;47.438;18.978;2024-03-23T07:46:42;20.90;;;16.52;;
59109;SDS011;44895;47.438;18.978;2024-03-23T07:49:46;24.13;;;16.17;;
59109;SDS011;44895;47.438;18.978;2024-03-23T07:52:50;21.70;;;14.27;;
59109;SDS011;44895;47.438;18.978;2024-03-23T07:55:57;19.20;;;14.88;;
59109;SDS011;44895;47.438;18.978;2024-03-23T07:59:10;19.65;;;15.00;;
59109;SDS011;44895;47.438;18.978;2024-03-23T08:02:14;18.48;;;13.80;;
59109;SDS011;44895;47.438;18.978;2024-03-23T08:05:17;19.42;;;14.68;;
59109;SDS011;44895;47.438;18.978;2024-03-23T08:08:21;26.67;;;15.57;;
59109;SDS011;44895;47.438;18.978;2024-03-23T08:11:28;20.50;;;15.75;;
59109;SDS011;44895;47.438;18.978;2024-03-23T08:14:33;22.10;;;14.88;;
59109;SDS011;44895;47.438;18.978;2024-03-23T08:17:37;23.83;;;17.52;;
59109;SDS011;44895;47.438;18.978;2024-03-23T08:20:41;19.00;;;13.82;;
59109;SDS011;44895;47.438;18.978;2024-03-23T08:23:45;20.92;;;15.77;;
59109;SDS011;44895;47.438;18.978;2024-03-23T08:26:48;22.33;;;14.10;;
59109;SDS011;44895;47.438;18.978;2024-03-23T08:29:52;22.08;;;15.35;;
59109;SDS011;44895;47.438;18.978;2024-03-23T08:32:56;27.73;;;16.88;;
59109;SDS011;44895;47.438;18.978;2024-03-23T08:39:08;22.80;;;17.23;;
59109;SDS011;44895;47.438;18.978;2024-03-23T08:42:12;20.17;;;15.77;;
59109;SDS011;44895;47.438;18.978;2024-03-23T08:45:16;16.92;;;15.00;;
59109;SDS011;44895;47.438;18.978;2024-03-23T08:48:20;21.77;;;15.18;;
59109;SDS011;44895;47.438;18.978;2024-03-23T08:51:24;21.48;;;15.05;;
59109;SDS011;44895;47.438;18.978;2024-03-23T08:54:27;18.80;;;14.23;;
59109;SDS011;44895;47.438;18.978;2024-03-23T08:57:32;16.40;;;13.20;;
59109;SDS011;44895;47.438;18.978;2024-03-23T09:00:36;16.95;;;12.77;;
59109;SDS011;44895;47.438;18.978;2024-03-23T09:03:40;17.40;;;11.40;;
59109;SDS011;44895;47.438;18.978;2024-03-23T09:06:44;18.60;;;11.10;;
59109;SDS011;44895;47.438;18.978;2024-03-23T09:09:48;19.52;;;11.25;;
59109;SDS011;44895;47.438;18.978;2024-03-23T09:12:51;13.38;;;9.30;;
59109;SDS011;44895;47.438;18.978;2024-03-23T09:15:55;12.40;;;10.48;;
59109;SDS011;44895;47.438;18.978;2024-03-23T09:19:00;14.02;;;10.20;;
59109;SDS011;44895;47.438;18.978;2024-03-23T09:22:03;13.90;;;10.13;;
59109;SDS011;44895;47.438;18.978;2024-03-23T09:25:07;13.80;;;9.00;;
59109;SDS011;44895;47.438;18.978;2024-03-23T09:28:11;17.50;;;9.70;;
59109;SDS011;44895;47.438;18.978;2024-03-23T09:31:15;15.98;;;9.32;;
59109;SDS011;44895;47.438;18.978;2024-03-23T09:34:19;11.73;;;8.45;;
59109;SDS011;44895;47.438;18.978;2024-03-23T09:37:23;9.70;;;6.50;;
59109;SDS011;44895;47.438;18.978;2024-03-23T09:40:26;13.45;;;8.38;;
59109;SDS011;44895;47.438;18.978;2024-03-23T09:43:30;11.63;;;6.95;;
59109;SDS011;44895;47.438;18.978;2024-03-23T09:46:34;12.07;;;7.07;;
59109;SDS011;44895;47.438;18.978;2024-03-23T09:49:39;11.68;;;6.38;;
59109;SDS011;44895;47.438;18.978;2024-03-23T09:52:45;10.68;;;6.80;;
59109;SDS011;44895;47.438;18.978;2024-03-23T09:55:49;24.02;;;8.60;;
59109;SDS011;44895;47.438;18.978;2024-03-23T09:59:03;12.40;;;7.70;;
59109;SDS011;44895;47.438;18.978;2024-03-23T10:02:06;13.70;;;7.50;;
59109;SDS011;44895;47.438;18.978;2024-03-23T10:05:22;20.98;;;6.93;;
59109;SDS011;44895;47.438;18.978;2024-03-23T10:08:27;13.73;;;7.03;;
59109;SDS011;44895;47.438;18.978;2024-03-23T10:11:32;10.32;;;5.97;;
59109;SDS011;44895;47.438;18.978;2024-03-23T10:14:35;11.43;;;6.22;;
59109;SDS011;44895;47.438;18.978;2024-03-23T10:17:40;11.70;;;6.30;;
59109;SDS011;44895;47.438;18.978;2024-03-23T10:20:43;15.75;;;6.95;;
59109;SDS011;44895;47.438;18.978;2024-03-23T10:23:47;13.93;;;4.50;;
59109;SDS011;44895;47.438;18.978;2024-03-23T10:26:56;10.57;;;5.90;;
59109;SDS011;44895;47.438;18.978;2024-03-23T10:30:10;11.32;;;6.07;;
59109;SDS011;44895;47.438;18.978;2024-03-23T10:33:15;11.68;;;6.47;;
59109;SDS011;44895;47.438;18.978;2024-03-23T10:36:21;13.15;;;5.65;;
59109;SDS011;44895;47.438;18.978;2024-03-23T10:39:26;10.98;;;6.40;;
59109;SDS011;44895;47.438;18.978;2024-03-23T10:42:29;21.83;;;7.38;;
59109;SDS011;44895;47.438;18.978;2024-03-23T10:45:33;11.80;;;5.85;;
59109;SDS011;44895;47.438;18.978;2024-03-23T10:48:37;8.75;;;4.18;;
59109;SDS011;44895;47.438;18.978;2024-03-23T10:51:42;11.80;;;6.13;;
59109;SDS011;44895;47.438;18.978;2024-03-23T10:54:45;11.05;;;6.03;;
59109;SDS011;44895;47.438;18.978;2024-03-23T10:57:55;9.53;;;4.90;;
59109;SDS011;44895;47.438;18.978;2024-03-23T11:01:02;10.70;;;4.30;;
59109;SDS011;44895;47.438;18.978;2024-03-23T11:04:06;11.13;;;5.13;;
59109;SDS011;44895;47.438;18.978;2024-03-23T11:07:53;7.75;;;3.58;;
59109;SDS011;44895;47.438;18.978;2024-03-23T11:10:36;15.85;;;5.82;;
59109;SDS011;44895;47.438;18.978;2024-03-23T11:13:40;9.95;;;4.60;;
59109;SDS011;44895;47.438;18.978;2024-03-23T11:16:44;8.02;;;3.72;;
59109;SDS011;44895;47.438;18.978;2024-03-23T11:20:00;10.15;;;4.18;;
59109;SDS011;44895;47.438;18.978;2024-03-23T11:23:04;8.63;;;4.15;;
59109;SDS011;44895;47.438;18.978;2024-03-23T11:26:08;9.43;;;4.10;;
59109;SDS011;44895;47.438;18.978;2024-03-23T11:29:12;9.25;;;4.63;;
59109;SDS011;44895;47.438;18.978;2024-03-23T11:32:16;8.27;;;3.88;;
59109;SDS011;44895;47.438;18.978;2024-03-23T11:35:33;9.27;;;4.10;;
59109;SDS011;44895;47.438;18.978;2024-03-23T11:38:37;8.48;;;3.72;;
59109;SDS011;44895;47.438;18.978;2024-03-23T11:44:52;7.85;;;3.95;;
59109;SDS011;44895;47.438;18.978;2024-03-23T11:51:06;9.00;;;4.45;;
59109;SDS011;44895;47.438;18.978;2024-03-23T11:54:10;11.15;;;4.78;;
59109;SDS011;44895;47.438;18.978;2024-03-23T11:57:14;8.70;;;4.60;;
59109;SDS011;44895;47.438;18.978;2024-03-23T12:00:21;7.05;;;4.07;;
59109;SDS011;44895;47.438;18.978;2024-03-23T12:03:25;8.48;;;3.70;;
59109;SDS011;44895;47.438;18.978;2024-03-23T12:06:31;10.05;;;3.95;;
59109;SDS011;44895;47.438;18.978;2024-03-23T12:09:35;8.15;;;3.75;;
59109;SDS011;44895;47.438;18.978;2024-03-23T12:12:39;13.52;;;3.47;;
59109;SDS011;44895;47.438;18.978;2024-03-23T12:15:43;6.38;;;2.55;;
59109;SDS011;44895;47.438;18.978;2024-03-23T12:18:48;6.75;;;2.80;;
59109;SDS011;44895;47.438;18.978;2024-03-23T12:21:54;8.55;;;3.03;;
59109;SDS011;44895;47.438;18.978;2024-03-23T12:24:58;10.35;;;3.00;;
59109;SDS011;44895;47.438;18.978;2024-03-23T12:28:02;7.28;;;3.00;;
59109;SDS011;44895;47.438;18.978;2024-03-23T12:31:05;5.95;;;2.58;;
59109;SDS011;44895;47.438;18.978;2024-03-23T12:34:09;7.30;;;3.03;;
59109;SDS011;44895;47.438;18.978;2024-03-23T12:37:13;7.63;;;2.80;;
59109;SDS011;44895;47.438;18.978;2024-03-23T12:40:18;10.00;;;3.45;;
59109;SDS011;44895;47.438;18.978;2024-03-23T12:43:21;7.10;;;2.45;;
59109;SDS011;44895;47.438;18.978;2024-03-23T12:46:25;11.07;;;2.63;;
59109;SDS011;44895;47.438;18.978;2024-03-23T12:49:29;5.95;;;2.55;;
59109;SDS011;44895;47.438;18.978;2024-03-23T12:52:33;6.85;;;2.65;;
59109;SDS011;44895;47.438;18.978;2024-03-23T12:55:36;5.78;;;2.38;;
59109;SDS011;44895;47.438;18.978;2024-03-23T12:58:40;6.55;;;2.65;;
59109;SDS011;44895;47.438;18.978;2024-03-23T13:01:44;5.55;;;2.47;;
59109;SDS011;44895;47.438;18.978;2024-03-23T13:04:49;7.30;;;2.97;;
59109;SDS011;44895;47.438;18.978;2024-03-23T13:07:53;9.65;;;2.60;;
59109;SDS011;44895;47.438;18.978;2024-03-23T13:10:57;6.22;;;2.53;;
59109;SDS011;44895;47.438;18.978;2024-03-23T13:14:01;7.10;;;2.58;;
59109;SDS011;44895;47.438;18.978;2024-03-23T13:17:05;5.55;;;2.55;;
59109;SDS011;44895;47.438;18.978;2024-03-23T13:20:09;6.95;;;3.03;;
59109;SDS011;44895;47.438;18.978;2024-03-23T13:23:17;5.68;;;2.35;;
59109;SDS011;44895;47.438;18.978;2024-03-23T13:26:20;7.13;;;2.75;;
59109;SDS011;44895;47.438;18.978;2024-03-23T13:29:24;6.47;;;2.67;;
59109;SDS011;44895;47.438;18.978;2024-03-23T13:32:28;6.45;;;2.85;;
59109;SDS011;44895;47.438;18.978;2024-03-23T13:35:31;5.57;;;2.25;;
59109;SDS011;44895;47.438;18.978;2024-03-23T13:38:35;5.55;;;2.65;;
59109;SDS011;44895;47.438;18.978;2024-03-23T13:41:39;10.27;;;4.65;;
59109;SDS011;44895;47.438;18.978;2024-03-23T13:44:44;7.82;;;2.90;;
59109;SDS011;44895;47.438;18.978;2024-03-23T13:47:48;5.78;;;2.40;;
59109;SDS011;44895;47.438;18.978;2024-03-23T13:51:04;6.38;;;2.10;;
59109;SDS011;44895;47.438;18.978;2024-03-23T13:54:08;5.97;;;2.75;;
59109;SDS011;44895;47.438;18.978;2024-03-23T13:57:12;12.63;;;3.08;;
59109;SDS011;44895;47.438;18.978;2024-03-23T14:00:16;6.88;;;2.20;;
59109;SDS011;44895;47.438;18.978;2024-03-23T14:03:21;6.93;;;2.67;;
59109;SDS011;44895;47.438;18.978;2024-03-23T14:06:25;4.80;;;1.95;;
59109;SDS011;44895;47.438;18.978;2024-03-23T14:09:29;9.18;;;2.85;;
59109;SDS011;44895;47.438;18.978;2024-03-23T14:12:33;9.88;;;2.75;;
59109;SDS011;44895;47.438;18.978;2024-03-23T14:15:37;7.57;;;2.55;;
59109;SDS011;44895;47.438;18.978;2024-03-23T14:18:42;5.68;;;2.42;;
59109;SDS011;44895;47.438;18.978;2024-03-23T14:21:45;6.50;;;2.30;;
59109;SDS011;44895;47.438;18.978;2024-03-23T14:24:49;5.10;;;2.20;;
59109;SDS011;44895;47.438;18.978;2024-03-23T14:27:53;4.30;;;2.00;;
59109;SDS011;44895;47.438;18.978;2024-03-23T14:30:56;11.63;;;2.40;;
59109;SDS011;44895;47.438;18.978;2024-03-23T14:34:00;6.70;;;3.03;;
59109;SDS011;44895;47.438;18.978;2024-03-23T14:37:04;5.82;;;2.28;;
59109;SDS011;44895;47.438;18.978;2024-03-23T14:40:08;5.22;;;2.40;;
59109;SDS011;44895;47.438;18.978;2024-03-23T14:43:16;5.72;;;2.42;;
59109;SDS011;44895;47.438;18.978;2024-03-23T14:46:19;6.63;;;2.53;;
59109;SDS011;44895;47.438;18.978;2024-03-23T14:49:23;8.20;;;3.33;;
59109;SDS011;44895;47.438;18.978;2024-03-23T14:52:26;7.70;;;3.08;;
59109;SDS011;44895;47.438;18.978;2024-03-23T14:55:30;9.00;;;3.67;;
59109;SDS011;44895;47.438;18.978;2024-03-23T14:58:34;6.35;;;3.08;;
59109;SDS011;44895;47.438;18.978;2024-03-23T15:01:38;6.65;;;3.53;;
59109;SDS011;44895;47.438;18.978;2024-03-23T15:04:42;6.30;;;2.90;;
59109;SDS011;44895;47.438;18.978;2024-03-23T15:07:46;9.30;;;3.17;;
59109;SDS011;44895;47.438;18.978;2024-03-23T15:10:50;6.75;;;3.05;;
59109;SDS011;44895;47.438;18.978;2024-03-23T15:13:54;7.00;;;3.85;;
59109;SDS011;44895;47.438;18.978;2024-03-23T15:16:58;7.72;;;4.13;;
59109;SDS011;44895;47.438;18.978;2024-03-23T15:20:02;7.43;;;3.67;;
59109;SDS011;44895;47.438;18.978;2024-03-23T15:23:06;9.15;;;3.25;;
59109;SDS011;44895;47.438;18.978;2024-03-23T15:26:09;6.90;;;2.85;;
59109;SDS011;44895;47.438;18.978;2024-03-23T15:29:13;7.93;;;3.83;;
59109;SDS011;44895;47.438;18.978;2024-03-23T15:32:20;10.40;;;4.13;;
59109;SDS011;44895;47.438;18.978;2024-03-23T15:35:24;13.52;;;3.47;;
59109;SDS011;44895;47.438;18.978;2024-03-23T15:38:28;8.23;;;4.15;;
59109;SDS011;44895;47.438;18.978;2024-03-23T15:41:34;10.00;;;4.28;;
59109;SDS011;44895;47.438;18.978;2024-03-23T15:44:39;7.88;;;3.97;;
59109;SDS011;44895;47.438;18.978;2024-03-23T15:47:42;7.43;;;3.72;;
59109;SDS011;44895;47.438;18.978;2024-03-23T15:50:59;7.20;;;3.83;;
59109;SDS011;44895;47.438;18.978;2024-03-23T15:54:04;9.75;;;4.20;;
59109;SDS011;44895;47.438;18.978;2024-03-23T15:57:08;7.65;;;3.58;;
59109;SDS011;44895;47.438;18.978;2024-03-23T16:00:12;8.00;;;3.92;;
59109;SDS011;44895;47.438;18.978;2024-03-23T16:03:16;9.95;;;4.93;;
59109;SDS011;44895;47.438;18.978;2024-03-23T16:06:20;9.45;;;5.10;;
59109;SDS011;44895;47.438;18.978;2024-03-23T16:09:24;12.70;;;6.00;;
59109;SDS011;44895;47.438;18.978;2024-03-23T16:12:29;12.15;;;6.88;;
59109;SDS011;44895;47.438;18.978;2024-03-23T16:15:32;12.90;;;7.47;;
59109;SDS011;44895;47.438;18.978;2024-03-23T16:18:36;9.35;;;5.55;;
59109;SDS011;44895;47.438;18.978;2024-03-23T16:22:02;8.73;;;5.85;;
59109;SDS011;44895;47.438;18.978;2024-03-23T16:25:06;11.00;;;5.78;;
59109;SDS011;44895;47.438;18.978;2024-03-23T16:28:10;16.42;;;6.18;;
59109;SDS011;44895;47.438;18.978;2024-03-23T16:31:14;11.00;;;5.95;;
59109;SDS011;44895;47.438;18.978;2024-03-23T16:34:18;10.52;;;5.95;;
59109;SDS011;44895;47.438;18.978;2024-03-23T16:37:22;12.23;;;5.43;;
59109;SDS011;44895;47.438;18.978;2024-03-23T16:40:26;10.73;;;4.10;;
59109;SDS011;44895;47.438;18.978;2024-03-23T16:43:30;17.02;;;5.15;;
59109;SDS011;44895;47.438;18.978;2024-03-23T16:46:33;10.43;;;4.53;;
59109;SDS011;44895;47.438;18.978;2024-03-23T16:49:37;8.57;;;3.65;;
59109;SDS011;44895;47.438;18.978;2024-03-23T16:52:41;10.48;;;4.43;;
59109;SDS011;44895;47.438;18.978;2024-03-23T16:55:45;9.13;;;4.90;;
59109;SDS011;44895;47.438;18.978;2024-03-23T16:58:49;8.60;;;3.25;;
59109;SDS011;44895;47.438;18.978;2024-03-23T17:01:53;9.38;;;4.63;;
59109;SDS011;44895;47.438;18.978;2024-03-23T17:04:57;12.27;;;4.90;;
59109;SDS011;44895;47.438;18.978;2024-03-23T17:08:01;9.95;;;1.77;;
59109;SDS011;44895;47.438;18.978;2024-03-23T17:11:06;8.75;;;1.92;;
59109;SDS011;44895;47.438;18.978;2024-03-23T17:14:09;6.25;;;1.27;;
59109;SDS011;44895;47.438;18.978;2024-03-23T17:17:15;5.55;;;0.77;;
59109;SDS011;44895;47.438;18.978;2024-03-23T17:20:19;1.70;;;0.57;;
59109;SDS011;44895;47.438;18.978;2024-03-23T17:23:23;2.25;;;0.63;;
59109;SDS011;44895;47.438;18.978;2024-03-23T17:26:27;2.83;;;0.70;;
59109;SDS011;44895;47.438;18.978;2024-03-23T17:29:31;2.03;;;0.85;;
59109;SDS011;44895;47.438;18.978;2024-03-23T17:32:35;6.45;;;1.38;;
59109;SDS011;44895;47.438;18.978;2024-03-23T17:35:39;1.27;;;0.30;;
59109;SDS011;44895;47.438;18.978;2024-03-23T17:38:42;3.20;;;0.60;;
59109;SDS011;44895;47.438;18.978;2024-03-23T17:41:46;1.17;;;0.43;;
59109;SDS011;44895;47.438;18.978;2024-03-23T17:44:51;2.28;;;0.60;;
59109;SDS011;44895;47.438;18.978;2024-03-23T17:47:55;0.88;;;0.40;;
59109;SDS011;44895;47.438;18.978;2024-03-23T17:51:03;8.57;;;1.58;;
59109;SDS011;44895;47.438;18.978;2024-03-23T17:54:07;3.90;;;1.05;;
59109;SDS011;44895;47.438;18.978;2024-03-23T17:57:11;2.08;;;0.77;;
59109;SDS011;44895;47.438;18.978;2024-03-23T18:00:14;2.50;;;1.23;;
59109;SDS011;44895;47.438;18.978;2024-03-23T18:03:19;3.15;;;0.95;;
59109;SDS011;44895;47.438;18.978;2024-03-23T18:06:23;2.88;;;0.93;;
59109;SDS011;44895;47.438;18.978;2024-03-23T18:09:26;1.50;;;0.40;;
59109;SDS011;44895;47.438;18.978;2024-03-23T18:12:30;4.55;;;1.63;;
59109;SDS011;44895;47.438;18.978;2024-03-23T18:15:35;3.58;;;0.60;;
59109;SDS011;44895;47.438;18.978;2024-03-23T18:18:40;3.15;;;0.63;;
59109;SDS011;44895;47.438;18.978;2024-03-23T18:21:43;3.30;;;0.65;;
59109;SDS011;44895;47.438;18.978;2024-03-23T18:24:47;2.10;;;0.70;;
59109;SDS011;44895;47.438;18.978;2024-03-23T18:27:51;2.20;;;0.65;;
59109;SDS011;44895;47.438;18.978;2024-03-23T18:31:00;4.85;;;1.02;;
59109;SDS011;44895;47.438;18.978;2024-03-23T18:34:05;6.93;;;0.90;;
59109;SDS011;44895;47.438;18.978;2024-03-23T18:37:09;4.13;;;0.30;;
59109;SDS011;44895;47.438;18.978;2024-03-23T18:40:13;1.05;;;0.70;;
59109;SDS011;44895;47.438;18.978;2024-03-23T18:43:17;3.30;;;1.02;;
59109;SDS011;44895;47.438;18.978;2024-03-23T18:46:21;2.63;;;0.60;;
59109;SDS011;44895;47.438;18.978;2024-03-23T18:49:26;6.38;;;1.38;;
59109;SDS011;44895;47.438;18.978;2024-03-23T18:52:30;2.38;;;0.88;;
59109;SDS011;44895;47.438;18.978;2024-03-23T18:55:34;7.38;;;1.00;;
59109;SDS011;44895;47.438;18.978;2024-03-23T18:58:37;4.57;;;1.05;;
59109;SDS011;44895;47.438;18.978;2024-03-23T19:01:41;3.75;;;0.65;;